Terminal Aerodrome Forecast
Issued by NWS Central Illinois

Home | Current Version | Previous Version | Text Only | Print | Product List | Glossary On
Versions: 1 2 3 4 5 6 7 8 9 10 11 12 13 14 15
000
FTUS43 KILX 262300 RRA
TAFPIA
TAF
KPIA 262350Z 2700/2724 17007KT P6SM SCT035
     FM270200 19011KT P6SM BKN035
     FM270700 18009KT 4SM -DZ BR OVC015 WS020/22040KT
      TEMPO 2711/2714 -RA OVC007
     FM271400 21012KT 5SM -DZ BR OVC008
     FM271700 25013KT P6SM OVC010
     FM272000 28015KT P6SM OVC015=

USA.gov is the U.S. government's official web portal to all federal, state and local government web resources and services.